sensor_id;sensor_type;location;lat;lon;timestamp;P1;durP1;ratioP1;P2;durP2;ratioP2
23682;SDS011;24897;53.514;10.482;2022-10-30T00:01:49;56.53;;;44.83;;
23682;SDS011;24897;53.514;10.482;2022-10-30T00:04:33;56.33;;;44.47;;
23682;SDS011;24897;53.514;10.482;2022-10-30T00:07:17;59.90;;;45.27;;
23682;SDS011;24897;53.514;10.482;2022-10-30T00:10:01;63.13;;;47.07;;
23682;SDS011;24897;53.514;10.482;2022-10-30T00:12:45;65.43;;;48.73;;
23682;SDS011;24897;53.514;10.482;2022-10-30T00:15:29;54.40;;;45.27;;
23682;SDS011;24897;53.514;10.482;2022-10-30T00:18:15;53.60;;;43.10;;
23682;SDS011;24897;53.514;10.482;2022-10-30T00:21:09;50.73;;;42.30;;
23682;SDS011;24897;53.514;10.482;2022-10-30T00:23:55;48.13;;;39.30;;
23682;SDS011;24897;53.514;10.482;2022-10-30T00:26:40;53.13;;;42.93;;
23682;SDS011;24897;53.514;10.482;2022-10-30T00:29:24;53.30;;;42.20;;
23682;SDS011;24897;53.514;10.482;2022-10-30T00:32:09;55.80;;;43.97;;
23682;SDS011;24897;53.514;10.482;2022-10-30T00:34:53;62.30;;;46.30;;
23682;SDS011;24897;53.514;10.482;2022-10-30T00:37:37;56.47;;;42.47;;
23682;SDS011;24897;53.514;10.482;2022-10-30T00:40:22;56.27;;;43.53;;
23682;SDS011;24897;53.514;10.482;2022-10-30T00:46:17;51.93;;;40.90;;
23682;SDS011;24897;53.514;10.482;2022-10-30T00:49:15;52.27;;;41.63;;
23682;SDS011;24897;53.514;10.482;2022-10-30T00:51:59;50.37;;;40.97;;
23682;SDS011;24897;53.514;10.482;2022-10-30T00:54:46;58.20;;;44.37;;
23682;SDS011;24897;53.514;10.482;2022-10-30T00:57:30;57.17;;;43.50;;
23682;SDS011;24897;53.514;10.482;2022-10-30T01:00:15;53.50;;;44.27;;
23682;SDS011;24897;53.514;10.482;2022-10-30T01:03:03;49.73;;;40.87;;
23682;SDS011;24897;53.514;10.482;2022-10-30T01:05:49;47.23;;;39.80;;
23682;SDS011;24897;53.514;10.482;2022-10-30T01:08:36;50.67;;;41.00;;
23682;SDS011;24897;53.514;10.482;2022-10-30T01:11:21;52.07;;;41.83;;
23682;SDS011;24897;53.514;10.482;2022-10-30T01:14:06;52.87;;;42.10;;
23682;SDS011;24897;53.514;10.482;2022-10-30T01:16:56;50.13;;;41.53;;
23682;SDS011;24897;53.514;10.482;2022-10-30T01:26:18;47.23;;;39.80;;
23682;SDS011;24897;53.514;10.482;2022-10-30T01:28:56;44.73;;;38.00;;
23682;SDS011;24897;53.514;10.482;2022-10-30T01:37:58;50.33;;;41.60;;
23682;SDS011;24897;53.514;10.482;2022-10-30T01:40:49;52.53;;;43.53;;
23682;SDS011;24897;53.514;10.482;2022-10-30T01:43:33;50.83;;;41.80;;
23682;SDS011;24897;53.514;10.482;2022-10-30T01:52:39;46.17;;;37.97;;
23682;SDS011;24897;53.514;10.482;2022-10-30T01:58:42;56.80;;;43.03;;
23682;SDS011;24897;53.514;10.482;2022-10-30T02:01:33;50.93;;;39.83;;
23682;SDS011;24897;53.514;10.482;2022-10-30T02:04:19;49.83;;;41.30;;
23682;SDS011;24897;53.514;10.482;2022-10-30T02:07:04;53.77;;;43.23;;
23682;SDS011;24897;53.514;10.482;2022-10-30T02:09:52;56.77;;;43.23;;
23682;SDS011;24897;53.514;10.482;2022-10-30T02:12:37;59.60;;;44.70;;
23682;SDS011;24897;53.514;10.482;2022-10-30T02:15:22;49.70;;;40.17;;
23682;SDS011;24897;53.514;10.482;2022-10-30T02:18:06;50.40;;;41.57;;
23682;SDS011;24897;53.514;10.482;2022-10-30T02:20:51;50.10;;;41.97;;
23682;SDS011;24897;53.514;10.482;2022-10-30T02:23:36;55.00;;;42.37;;
23682;SDS011;24897;53.514;10.482;2022-10-30T02:26:20;58.23;;;44.83;;
23682;SDS011;24897;53.514;10.482;2022-10-30T02:29:04;49.37;;;40.07;;
23682;SDS011;24897;53.514;10.482;2022-10-30T02:31:48;59.77;;;44.13;;
23682;SDS011;24897;53.514;10.482;2022-10-30T02:34:33;52.00;;;41.90;;
23682;SDS011;24897;53.514;10.482;2022-10-30T02:37:17;55.47;;;44.40;;
23682;SDS011;24897;53.514;10.482;2022-10-30T02:40:02;57.90;;;46.10;;
23682;SDS011;24897;53.514;10.482;2022-10-30T02:42:50;55.40;;;43.90;;
23682;SDS011;24897;53.514;10.482;2022-10-30T02:45:35;62.23;;;48.23;;
23682;SDS011;24897;53.514;10.482;2022-10-30T02:48:19;55.83;;;43.97;;
23682;SDS011;24897;53.514;10.482;2022-10-30T02:51:03;55.70;;;45.43;;
23682;SDS011;24897;53.514;10.482;2022-10-30T02:53:48;56.70;;;45.23;;
23682;SDS011;24897;53.514;10.482;2022-10-30T02:56:33;55.67;;;45.03;;
23682;SDS011;24897;53.514;10.482;2022-10-30T02:59:17;54.37;;;43.73;;
23682;SDS011;24897;53.514;10.482;2022-10-30T03:02:01;56.17;;;44.27;;
23682;SDS011;24897;53.514;10.482;2022-10-30T03:04:45;53.70;;;45.47;;
23682;SDS011;24897;53.514;10.482;2022-10-30T03:07:30;51.87;;;43.50;;
23682;SDS011;24897;53.514;10.482;2022-10-30T03:10:14;51.97;;;44.73;;
23682;SDS011;24897;53.514;10.482;2022-10-30T03:12:58;50.10;;;43.20;;
23682;SDS011;24897;53.514;10.482;2022-10-30T03:15:42;52.93;;;43.20;;
23682;SDS011;24897;53.514;10.482;2022-10-30T03:18:26;58.03;;;46.23;;
23682;SDS011;24897;53.514;10.482;2022-10-30T03:21:12;49.37;;;40.90;;
23682;SDS011;24897;53.514;10.482;2022-10-30T03:23:57;49.97;;;42.27;;
23682;SDS011;24897;53.514;10.482;2022-10-30T03:26:41;49.83;;;40.60;;
23682;SDS011;24897;53.514;10.482;2022-10-30T03:29:25;50.20;;;41.17;;
23682;SDS011;24897;53.514;10.482;2022-10-30T03:32:10;47.93;;;41.67;;
23682;SDS011;24897;53.514;10.482;2022-10-30T03:34:55;51.13;;;41.67;;
23682;SDS011;24897;53.514;10.482;2022-10-30T03:37:39;54.13;;;43.40;;
23682;SDS011;24897;53.514;10.482;2022-10-30T03:40:24;52.57;;;43.33;;
23682;SDS011;24897;53.514;10.482;2022-10-30T03:43:08;45.80;;;40.17;;
23682;SDS011;24897;53.514;10.482;2022-10-30T03:45:54;48.47;;;40.47;;
23682;SDS011;24897;53.514;10.482;2022-10-30T03:48:39;46.57;;;38.93;;
23682;SDS011;24897;53.514;10.482;2022-10-30T03:51:23;46.00;;;38.30;;
23682;SDS011;24897;53.514;10.482;2022-10-30T03:54:07;46.47;;;37.63;;
23682;SDS011;24897;53.514;10.482;2022-10-30T03:56:51;47.93;;;39.37;;
23682;SDS011;24897;53.514;10.482;2022-10-30T03:59:35;50.80;;;40.33;;
23682;SDS011;24897;53.514;10.482;2022-10-30T04:02:19;47.57;;;36.80;;
23682;SDS011;24897;53.514;10.482;2022-10-30T04:05:03;46.70;;;38.07;;
23682;SDS011;24897;53.514;10.482;2022-10-30T04:07:48;46.93;;;38.07;;
23682;SDS011;24897;53.514;10.482;2022-10-30T04:10:41;50.50;;;39.10;;
23682;SDS011;24897;53.514;10.482;2022-10-30T04:13:26;60.10;;;45.80;;
23682;SDS011;24897;53.514;10.482;2022-10-30T04:16:11;48.00;;;37.77;;
23682;SDS011;24897;53.514;10.482;2022-10-30T04:18:55;45.63;;;38.07;;
23682;SDS011;24897;53.514;10.482;2022-10-30T04:21:39;49.53;;;39.10;;
23682;SDS011;24897;53.514;10.482;2022-10-30T04:24:25;46.90;;;38.10;;
23682;SDS011;24897;53.514;10.482;2022-10-30T04:27:10;46.77;;;36.73;;
23682;SDS011;24897;53.514;10.482;2022-10-30T04:29:56;52.20;;;38.53;;
23682;SDS011;24897;53.514;10.482;2022-10-30T04:35:33;46.83;;;36.37;;
23682;SDS011;24897;53.514;10.482;2022-10-30T04:38:22;44.73;;;36.37;;
23682;SDS011;24897;53.514;10.482;2022-10-30T04:41:06;42.67;;;35.17;;
23682;SDS011;24897;53.514;10.482;2022-10-30T04:43:50;46.20;;;35.50;;
23682;SDS011;24897;53.514;10.482;2022-10-30T04:46:34;42.67;;;34.70;;
23682;SDS011;24897;53.514;10.482;2022-10-30T04:49:18;47.50;;;37.50;;
23682;SDS011;24897;53.514;10.482;2022-10-30T04:52:02;45.03;;;35.47;;
23682;SDS011;24897;53.514;10.482;2022-10-30T04:54:47;47.70;;;37.73;;
23682;SDS011;24897;53.514;10.482;2022-10-30T04:57:31;46.40;;;36.43;;
23682;SDS011;24897;53.514;10.482;2022-10-30T05:00:15;52.67;;;39.97;;
23682;SDS011;24897;53.514;10.482;2022-10-30T05:03:00;50.50;;;38.40;;
23682;SDS011;24897;53.514;10.482;2022-10-30T05:05:45;48.30;;;36.47;;
23682;SDS011;24897;53.514;10.482;2022-10-30T05:08:31;43.47;;;34.87;;
23682;SDS011;24897;53.514;10.482;2022-10-30T05:11:16;44.20;;;34.60;;
23682;SDS011;24897;53.514;10.482;2022-10-30T05:14:01;43.63;;;35.03;;
23682;SDS011;24897;53.514;10.482;2022-10-30T05:16:46;43.90;;;35.50;;
23682;SDS011;24897;53.514;10.482;2022-10-30T05:19:30;42.60;;;34.60;;
23682;SDS011;24897;53.514;10.482;2022-10-30T05:22:14;44.77;;;35.80;;
23682;SDS011;24897;53.514;10.482;2022-10-30T05:24:58;43.20;;;35.53;;
23682;SDS011;24897;53.514;10.482;2022-10-30T05:27:42;45.53;;;36.07;;
23682;SDS011;24897;53.514;10.482;2022-10-30T05:30:26;43.43;;;35.03;;
23682;SDS011;24897;53.514;10.482;2022-10-30T05:33:12;40.93;;;34.03;;
23682;SDS011;24897;53.514;10.482;2022-10-30T05:35:58;42.13;;;33.43;;
23682;SDS011;24897;53.514;10.482;2022-10-30T05:38:42;39.50;;;33.23;;
23682;SDS011;24897;53.514;10.482;2022-10-30T05:41:28;43.33;;;34.90;;
23682;SDS011;24897;53.514;10.482;2022-10-30T05:44:12;44.67;;;34.63;;
23682;SDS011;24897;53.514;10.482;2022-10-30T05:46:56;41.13;;;33.37;;
23682;SDS011;24897;53.514;10.482;2022-10-30T05:49:40;41.67;;;33.20;;
23682;SDS011;24897;53.514;10.482;2022-10-30T05:52:24;43.07;;;33.83;;
23682;SDS011;24897;53.514;10.482;2022-10-30T05:55:08;40.73;;;32.40;;
23682;SDS011;24897;53.514;10.482;2022-10-30T05:57:56;44.50;;;34.30;;
23682;SDS011;24897;53.514;10.482;2022-10-30T06:00:41;42.73;;;34.27;;
23682;SDS011;24897;53.514;10.482;2022-10-30T06:03:27;41.63;;;33.97;;
23682;SDS011;24897;53.514;10.482;2022-10-30T06:06:11;42.07;;;34.17;;
23682;SDS011;24897;53.514;10.482;2022-10-30T06:08:55;43.30;;;34.00;;
23682;SDS011;24897;53.514;10.482;2022-10-30T06:11:39;42.03;;;33.50;;
23682;SDS011;24897;53.514;10.482;2022-10-30T06:14:23;41.30;;;33.27;;
23682;SDS011;24897;53.514;10.482;2022-10-30T06:17:07;45.47;;;35.73;;
23682;SDS011;24897;53.514;10.482;2022-10-30T06:19:51;42.60;;;34.40;;
23682;SDS011;24897;53.514;10.482;2022-10-30T06:22:35;43.10;;;33.30;;
23682;SDS011;24897;53.514;10.482;2022-10-30T06:25:19;40.60;;;34.53;;
23682;SDS011;24897;53.514;10.482;2022-10-30T06:28:04;40.80;;;33.97;;
23682;SDS011;24897;53.514;10.482;2022-10-30T06:30:48;42.30;;;33.80;;
23682;SDS011;24897;53.514;10.482;2022-10-30T06:33:32;41.93;;;34.03;;
23682;SDS011;24897;53.514;10.482;2022-10-30T06:36:17;42.53;;;32.20;;
23682;SDS011;24897;53.514;10.482;2022-10-30T06:39:01;41.27;;;33.63;;
23682;SDS011;24897;53.514;10.482;2022-10-30T06:41:45;42.60;;;33.30;;
23682;SDS011;24897;53.514;10.482;2022-10-30T06:44:29;43.43;;;35.20;;
23682;SDS011;24897;53.514;10.482;2022-10-30T06:47:13;45.87;;;36.57;;
23682;SDS011;24897;53.514;10.482;2022-10-30T06:49:57;42.43;;;34.50;;
23682;SDS011;24897;53.514;10.482;2022-10-30T06:52:42;41.20;;;33.50;;
23682;SDS011;24897;53.514;10.482;2022-10-30T06:55:26;46.27;;;35.53;;
23682;SDS011;24897;53.514;10.482;2022-10-30T06:58:10;48.60;;;35.30;;
23682;SDS011;24897;53.514;10.482;2022-10-30T07:00:54;45.47;;;34.47;;
23682;SDS011;24897;53.514;10.482;2022-10-30T07:03:41;46.83;;;34.93;;
23682;SDS011;24897;53.514;10.482;2022-10-30T07:06:25;49.60;;;36.27;;
23682;SDS011;24897;53.514;10.482;2022-10-30T07:09:09;43.63;;;35.00;;
23682;SDS011;24897;53.514;10.482;2022-10-30T07:11:54;43.77;;;34.03;;
23682;SDS011;24897;53.514;10.482;2022-10-30T07:14:38;44.77;;;35.20;;
23682;SDS011;24897;53.514;10.482;2022-10-30T07:17:22;47.43;;;35.90;;
23682;SDS011;24897;53.514;10.482;2022-10-30T07:20:07;44.87;;;35.07;;
23682;SDS011;24897;53.514;10.482;2022-10-30T07:22:52;47.00;;;35.77;;
23682;SDS011;24897;53.514;10.482;2022-10-30T07:25:36;45.10;;;34.87;;
23682;SDS011;24897;53.514;10.482;2022-10-30T07:28:20;49.23;;;35.87;;
23682;SDS011;24897;53.514;10.482;2022-10-30T07:31:05;47.67;;;35.23;;
23682;SDS011;24897;53.514;10.482;2022-10-30T07:33:48;42.80;;;33.03;;
23682;SDS011;24897;53.514;10.482;2022-10-30T07:36:33;43.87;;;34.80;;
23682;SDS011;24897;53.514;10.482;2022-10-30T07:39:17;53.50;;;41.43;;
23682;SDS011;24897;53.514;10.482;2022-10-30T07:42:01;47.03;;;35.10;;
23682;SDS011;24897;53.514;10.482;2022-10-30T07:44:46;47.97;;;35.80;;
23682;SDS011;24897;53.514;10.482;2022-10-30T07:47:30;45.27;;;35.20;;
23682;SDS011;24897;53.514;10.482;2022-10-30T07:50:14;45.13;;;34.87;;
23682;SDS011;24897;53.514;10.482;2022-10-30T07:52:58;48.57;;;36.77;;
23682;SDS011;24897;53.514;10.482;2022-10-30T07:55:42;50.97;;;35.30;;
23682;SDS011;24897;53.514;10.482;2022-10-30T07:58:26;45.33;;;34.73;;
23682;SDS011;24897;53.514;10.482;2022-10-30T08:01:10;42.70;;;34.90;;
23682;SDS011;24897;53.514;10.482;2022-10-30T08:03:54;46.37;;;35.73;;
23682;SDS011;24897;53.514;10.482;2022-10-30T08:06:38;46.30;;;35.03;;
23682;SDS011;24897;53.514;10.482;2022-10-30T08:09:22;42.43;;;33.60;;
23682;SDS011;24897;53.514;10.482;2022-10-30T08:12:06;41.60;;;33.87;;
23682;SDS011;24897;53.514;10.482;2022-10-30T08:14:51;44.43;;;33.63;;
23682;SDS011;24897;53.514;10.482;2022-10-30T08:17:42;44.13;;;32.03;;
23682;SDS011;24897;53.514;10.482;2022-10-30T08:20:33;41.90;;;32.37;;
23682;SDS011;24897;53.514;10.482;2022-10-30T08:23:17;39.93;;;32.53;;
23682;SDS011;24897;53.514;10.482;2022-10-30T08:26:02;46.30;;;34.17;;
23682;SDS011;24897;53.514;10.482;2022-10-30T08:28:47;44.87;;;35.40;;
23682;SDS011;24897;53.514;10.482;2022-10-30T08:31:32;45.93;;;36.10;;
23682;SDS011;24897;53.514;10.482;2022-10-30T08:34:16;37.77;;;31.27;;
23682;SDS011;24897;53.514;10.482;2022-10-30T08:37:00;41.87;;;32.73;;
23682;SDS011;24897;53.514;10.482;2022-10-30T08:39:45;37.50;;;33.40;;
23682;SDS011;24897;53.514;10.482;2022-10-30T08:42:29;35.27;;;31.40;;
23682;SDS011;24897;53.514;10.482;2022-10-30T08:45:13;40.00;;;32.60;;
23682;SDS011;24897;53.514;10.482;2022-10-30T08:47:58;46.73;;;33.30;;
23682;SDS011;24897;53.514;10.482;2022-10-30T08:50:43;38.73;;;32.77;;
23682;SDS011;24897;53.514;10.482;2022-10-30T08:53:28;38.10;;;32.70;;
23682;SDS011;24897;53.514;10.482;2022-10-30T08:56:12;37.30;;;33.23;;
23682;SDS011;24897;53.514;10.482;2022-10-30T08:58:56;38.97;;;32.33;;
23682;SDS011;24897;53.514;10.482;2022-10-30T09:01:40;34.77;;;30.93;;
23682;SDS011;24897;53.514;10.482;2022-10-30T09:04:24;36.87;;;32.93;;
23682;SDS011;24897;53.514;10.482;2022-10-30T09:07:08;35.00;;;31.33;;
23682;SDS011;24897;53.514;10.482;2022-10-30T09:09:52;36.10;;;31.37;;
23682;SDS011;24897;53.514;10.482;2022-10-30T09:12:36;35.10;;;30.57;;
23682;SDS011;24897;53.514;10.482;2022-10-30T09:15:20;36.53;;;29.47;;
23682;SDS011;24897;53.514;10.482;2022-10-30T09:18:05;34.30;;;29.30;;
23682;SDS011;24897;53.514;10.482;2022-10-30T09:20:49;34.57;;;28.97;;
23682;SDS011;24897;53.514;10.482;2022-10-30T09:23:33;30.50;;;27.33;;
23682;SDS011;24897;53.514;10.482;2022-10-30T09:26:17;30.57;;;27.03;;
23682;SDS011;24897;53.514;10.482;2022-10-30T09:29:02;30.73;;;27.47;;
23682;SDS011;24897;53.514;10.482;2022-10-30T09:31:46;28.87;;;25.97;;
23682;SDS011;24897;53.514;10.482;2022-10-30T09:34:30;30.97;;;27.33;;
23682;SDS011;24897;53.514;10.482;2022-10-30T09:37:14;31.13;;;27.77;;
23682;SDS011;24897;53.514;10.482;2022-10-30T09:39:58;31.17;;;27.73;;
23682;SDS011;24897;53.514;10.482;2022-10-30T09:42:43;29.80;;;26.60;;
23682;SDS011;24897;53.514;10.482;2022-10-30T10:00:36;29.57;;;24.83;;
23682;SDS011;24897;53.514;10.482;2022-10-30T10:03:32;30.23;;;26.53;;
23682;SDS011;24897;53.514;10.482;2022-10-30T10:06:20;35.33;;;29.03;;
23682;SDS011;24897;53.514;10.482;2022-10-30T10:09:17;31.47;;;24.77;;
23682;SDS011;24897;53.514;10.482;2022-10-30T10:12:06;28.27;;;25.33;;
23682;SDS011;24897;53.514;10.482;2022-10-30T10:14:54;29.50;;;24.17;;
23682;SDS011;24897;53.514;10.482;2022-10-30T10:17:41;31.47;;;24.60;;
23682;SDS011;24897;53.514;10.482;2022-10-30T10:20:31;26.43;;;23.47;;
23682;SDS011;24897;53.514;10.482;2022-10-30T10:23:25;33.60;;;24.10;;
23682;SDS011;24897;53.514;10.482;2022-10-30T10:29:09;26.27;;;23.77;;
23682;SDS011;24897;53.514;10.482;2022-10-30T10:41:06;28.67;;;22.67;;
23682;SDS011;24897;53.514;10.482;2022-10-30T10:50:29;27.27;;;23.50;;
23682;SDS011;24897;53.514;10.482;2022-10-30T10:56:07;30.13;;;23.17;;
23682;SDS011;24897;53.514;10.482;2022-10-30T10:58:54;31.00;;;23.83;;
23682;SDS011;24897;53.514;10.482;2022-10-30T11:01:49;27.77;;;22.57;;
23682;SDS011;24897;53.514;10.482;2022-10-30T11:04:38;28.63;;;22.40;;
23682;SDS011;24897;53.514;10.482;2022-10-30T11:07:27;27.93;;;22.13;;
23682;SDS011;24897;53.514;10.482;2022-10-30T11:10:15;26.03;;;22.60;;
23682;SDS011;24897;53.514;10.482;2022-10-30T11:13:01;28.70;;;23.50;;
23682;SDS011;24897;53.514;10.482;2022-10-30T11:19:07;30.43;;;23.37;;
23682;SDS011;24897;53.514;10.482;2022-10-30T11:21:52;30.43;;;22.77;;
23682;SDS011;24897;53.514;10.482;2022-10-30T11:24:37;25.07;;;22.43;;
23682;SDS011;24897;53.514;10.482;2022-10-30T11:30:16;29.37;;;23.40;;
23682;SDS011;24897;53.514;10.482;2022-10-30T11:33:19;29.30;;;22.80;;
23682;SDS011;24897;53.514;10.482;2022-10-30T11:36:08;38.60;;;26.90;;
23682;SDS011;24897;53.514;10.482;2022-10-30T11:38:53;35.87;;;24.57;;
23682;SDS011;24897;53.514;10.482;2022-10-30T11:44:59;27.27;;;22.85;;
23682;SDS011;24897;53.514;10.482;2022-10-30T11:47:45;27.77;;;22.33;;
23682;SDS011;24897;53.514;10.482;2022-10-30T11:50:30;31.83;;;22.87;;
23682;SDS011;24897;53.514;10.482;2022-10-30T11:53:17;29.53;;;23.30;;
23682;SDS011;24897;53.514;10.482;2022-10-30T11:56:13;31.85;;;22.38;;
23682;SDS011;24897;53.514;10.482;2022-10-30T11:59:13;27.13;;;22.40;;
23682;SDS011;24897;53.514;10.482;2022-10-30T12:02:07;26.13;;;22.03;;
23682;SDS011;24897;53.514;10.482;2022-10-30T12:10:58;26.20;;;21.30;;
23682;SDS011;24897;53.514;10.482;2022-10-30T12:13:44;24.77;;;21.63;;
23682;SDS011;24897;53.514;10.482;2022-10-30T12:16:28;27.23;;;21.30;;
23682;SDS011;24897;53.514;10.482;2022-10-30T12:19:13;30.20;;;21.77;;
23682;SDS011;24897;53.514;10.482;2022-10-30T12:21:59;24.43;;;21.50;;
23682;SDS011;24897;53.514;10.482;2022-10-30T12:24:44;27.77;;;22.02;;
23682;SDS011;24897;53.514;10.482;2022-10-30T12:27:28;25.98;;;21.77;;
23682;SDS011;24897;53.514;10.482;2022-10-30T12:30:17;32.47;;;22.17;;
23682;SDS011;24897;53.514;10.482;2022-10-30T12:33:04;26.15;;;21.13;;
23682;SDS011;24897;53.514;10.482;2022-10-30T12:35:55;24.60;;;21.13;;
23682;SDS011;24897;53.514;10.482;2022-10-30T12:41:33;24.67;;;21.98;;
23682;SDS011;24897;53.514;10.482;2022-10-30T12:44:29;31.60;;;22.45;;
23682;SDS011;24897;53.514;10.482;2022-10-30T12:50:28;25.20;;;22.60;;
23682;SDS011;24897;53.514;10.482;2022-10-30T12:56:42;30.45;;;23.45;;
23682;SDS011;24897;53.514;10.482;2022-10-30T13:02:44;25.60;;;22.92;;
23682;SDS011;24897;53.514;10.482;2022-10-30T13:11:48;26.77;;;22.70;;
23682;SDS011;24897;53.514;10.482;2022-10-30T13:14:44;29.05;;;23.73;;
23682;SDS011;24897;53.514;10.482;2022-10-30T13:17:31;29.67;;;23.60;;
23682;SDS011;24897;53.514;10.482;2022-10-30T13:20:16;28.88;;;23.65;;
23682;SDS011;24897;53.514;10.482;2022-10-30T13:23:11;31.30;;;23.83;;
23682;SDS011;24897;53.514;10.482;2022-10-30T13:26:07;32.13;;;25.13;;
23682;SDS011;24897;53.514;10.482;2022-10-30T13:29:00;32.97;;;24.58;;
23682;SDS011;24897;53.514;10.482;2022-10-30T13:37:39;30.83;;;25.20;;
23682;SDS011;24897;53.514;10.482;2022-10-30T13:46:29;32.90;;;27.13;;
23682;SDS011;24897;53.514;10.482;2022-10-30T13:49:40;33.37;;;26.90;;
23682;SDS011;24897;53.514;10.482;2022-10-30T13:52:45;33.73;;;27.87;;
23682;SDS011;24897;53.514;10.482;2022-10-30T13:55:34;29.50;;;26.17;;
23682;SDS011;24897;53.514;10.482;2022-10-30T14:01:21;33.40;;;27.17;;
23682;SDS011;24897;53.514;10.482;2022-10-30T14:04:33;30.10;;;26.90;;
23682;SDS011;24897;53.514;10.482;2022-10-30T14:07:29;36.00;;;27.43;;
23682;SDS011;24897;53.514;10.482;2022-10-30T14:10:18;29.83;;;26.60;;
23682;SDS011;24897;53.514;10.482;2022-10-30T14:16:00;30.97;;;26.43;;
23682;SDS011;24897;53.514;10.482;2022-10-30T14:18:59;32.03;;;27.90;;
23682;SDS011;24897;53.514;10.482;2022-10-30T14:24:42;32.00;;;28.57;;
23682;SDS011;24897;53.514;10.482;2022-10-30T14:27:28;29.70;;;26.60;;
23682;SDS011;24897;53.514;10.482;2022-10-30T14:30:17;29.57;;;26.67;;
23682;SDS011;24897;53.514;10.482;2022-10-30T14:33:02;32.43;;;27.40;;
23682;SDS011;24897;53.514;10.482;2022-10-30T14:35:50;29.93;;;26.73;;
23682;SDS011;24897;53.514;10.482;2022-10-30T14:41:54;32.67;;;29.37;;
23682;SDS011;24897;53.514;10.482;2022-10-30T14:44:59;33.17;;;29.77;;
23682;SDS011;24897;53.514;10.482;2022-10-30T14:51:19;33.30;;;30.00;;
23682;SDS011;24897;53.514;10.482;2022-10-30T14:54:16;34.90;;;31.40;;
23682;SDS011;24897;53.514;10.482;2022-10-30T14:57:21;34.40;;;30.90;;
23682;SDS011;24897;53.514;10.482;2022-10-30T15:15:27;43.07;;;38.53;;
23682;SDS011;24897;53.514;10.482;2022-10-30T15:18:14;45.07;;;40.43;;
23682;SDS011;24897;53.514;10.482;2022-10-30T15:21:05;43.20;;;39.10;;
23682;SDS011;24897;53.514;10.482;2022-10-30T15:23:50;43.13;;;38.77;;
23682;SDS011;24897;53.514;10.482;2022-10-30T15:26:37;44.77;;;40.20;;
23682;SDS011;24897;53.514;10.482;2022-10-30T15:29:23;42.33;;;38.10;;
23682;SDS011;24897;53.514;10.482;2022-10-30T15:32:17;45.77;;;41.10;;
23682;SDS011;24897;53.514;10.482;2022-10-30T15:35:03;45.53;;;41.03;;
23682;SDS011;24897;53.514;10.482;2022-10-30T15:38:08;44.30;;;40.00;;
23682;SDS011;24897;53.514;10.482;2022-10-30T15:40:57;44.63;;;40.10;;
23682;SDS011;24897;53.514;10.482;2022-10-30T15:43:43;42.87;;;38.77;;
23682;SDS011;24897;53.514;10.482;2022-10-30T15:46:28;43.23;;;39.23;;
23682;SDS011;24897;53.514;10.482;2022-10-30T15:49:22;42.73;;;38.80;;
23682;SDS011;24897;53.514;10.482;2022-10-30T15:52:15;41.97;;;38.10;;
23682;SDS011;24897;53.514;10.482;2022-10-30T15:55:07;43.47;;;39.27;;
23682;SDS011;24897;53.514;10.482;2022-10-30T15:57:57;42.70;;;38.70;;
23682;SDS011;24897;53.514;10.482;2022-10-30T16:00:53;44.37;;;39.90;;
23682;SDS011;24897;53.514;10.482;2022-10-30T16:03:39;43.93;;;39.63;;
23682;SDS011;24897;53.514;10.482;2022-10-30T16:06:25;44.33;;;39.70;;
23682;SDS011;24897;53.514;10.482;2022-10-30T16:09:12;45.43;;;40.87;;
23682;SDS011;24897;53.514;10.482;2022-10-30T16:11:57;47.10;;;42.40;;
23682;SDS011;24897;53.514;10.482;2022-10-30T16:14:43;51.70;;;46.47;;
23682;SDS011;24897;53.514;10.482;2022-10-30T16:17:27;49.90;;;44.77;;
23682;SDS011;24897;53.514;10.482;2022-10-30T16:20:12;48.37;;;43.30;;
23682;SDS011;24897;53.514;10.482;2022-10-30T16:22:56;48.00;;;43.10;;
23682;SDS011;24897;53.514;10.482;2022-10-30T16:25:42;47.77;;;42.90;;
23682;SDS011;24897;53.514;10.482;2022-10-30T16:28:28;50.03;;;45.03;;
23682;SDS011;24897;53.514;10.482;2022-10-30T16:31:12;48.53;;;43.07;;
23682;SDS011;24897;53.514;10.482;2022-10-30T16:33:58;47.00;;;41.90;;
23682;SDS011;24897;53.514;10.482;2022-10-30T16:36:44;48.33;;;43.13;;
23682;SDS011;24897;53.514;10.482;2022-10-30T16:39:28;50.83;;;45.53;;
23682;SDS011;24897;53.514;10.482;2022-10-30T16:42:21;47.60;;;42.50;;
23682;SDS011;24897;53.514;10.482;2022-10-30T16:45:43;47.27;;;42.13;;
23682;SDS011;24897;53.514;10.482;2022-10-30T16:48:18;47.97;;;42.63;;
23682;SDS011;24897;53.514;10.482;2022-10-30T16:51:13;46.47;;;41.37;;
23682;SDS011;24897;53.514;10.482;2022-10-30T16:54:00;47.50;;;42.53;;
23682;SDS011;24897;53.514;10.482;2022-10-30T16:56:44;50.03;;;43.80;;
23682;SDS011;24897;53.514;10.482;2022-10-30T16:59:34;48.90;;;43.83;;
23682;SDS011;24897;53.514;10.482;2022-10-30T17:02:28;49.40;;;44.00;;
23682;SDS011;24897;53.514;10.482;2022-10-30T17:11:04;50.07;;;44.57;;
23682;SDS011;24897;53.514;10.482;2022-10-30T17:16:37;51.17;;;45.87;;
23682;SDS011;24897;53.514;10.482;2022-10-30T17:22:14;50.90;;;45.50;;
23682;SDS011;24897;53.514;10.482;2022-10-30T17:25:03;49.53;;;44.20;;
23682;SDS011;24897;53.514;10.482;2022-10-30T17:27:59;53.33;;;47.50;;
23682;SDS011;24897;53.514;10.482;2022-10-30T17:30:43;53.37;;;47.53;;
23682;SDS011;24897;53.514;10.482;2022-10-30T17:33:35;52.20;;;46.07;;
23682;SDS011;24897;53.514;10.482;2022-10-30T17:36:20;52.13;;;46.57;;
23682;SDS011;24897;53.514;10.482;2022-10-30T17:39:04;51.37;;;45.83;;
23682;SDS011;24897;53.514;10.482;2022-10-30T17:41:49;52.77;;;47.00;;
23682;SDS011;24897;53.514;10.482;2022-10-30T17:44:35;54.53;;;47.53;;
23682;SDS011;24897;53.514;10.482;2022-10-30T17:47:19;51.00;;;45.50;;
23682;SDS011;24897;53.514;10.482;2022-10-30T17:50:04;51.50;;;46.00;;
23682;SDS011;24897;53.514;10.482;2022-10-30T17:52:49;55.80;;;47.50;;
23682;SDS011;24897;53.514;10.482;2022-10-30T17:55:33;58.90;;;48.10;;
23682;SDS011;24897;53.514;10.482;2022-10-30T17:58:18;55.90;;;48.13;;
23682;SDS011;24897;53.514;10.482;2022-10-30T18:01:02;56.93;;;50.40;;
23682;SDS011;24897;53.514;10.482;2022-10-30T18:03:47;56.80;;;50.60;;
23682;SDS011;24897;53.514;10.482;2022-10-30T18:06:31;55.80;;;49.73;;
23682;SDS011;24897;53.514;10.482;2022-10-30T18:09:16;56.50;;;49.40;;
23682;SDS011;24897;53.514;10.482;2022-10-30T18:12:01;55.10;;;49.07;;
23682;SDS011;24897;53.514;10.482;2022-10-30T18:14:45;55.43;;;49.33;;
23682;SDS011;24897;53.514;10.482;2022-10-30T18:17:29;65.83;;;57.30;;
23682;SDS011;24897;53.514;10.482;2022-10-30T18:20:14;59.67;;;51.20;;
23682;SDS011;24897;53.514;10.482;2022-10-30T18:22:58;57.87;;;51.47;;
23682;SDS011;24897;53.514;10.482;2022-10-30T18:25:42;58.43;;;51.70;;
23682;SDS011;24897;53.514;10.482;2022-10-30T18:28:27;60.43;;;51.20;;
23682;SDS011;24897;53.514;10.482;2022-10-30T18:31:11;64.43;;;51.87;;
23682;SDS011;24897;53.514;10.482;2022-10-30T18:33:57;70.83;;;58.13;;